Time;durP1;ratioP1;P1;durP2;ratioP2;P2;SDS_P1;SDS_P2;PMS_P1;PMS_P2;Temp;Humidity;BMP_temperature;BMP_pressure;BME280_temperature;BME280_humidity;BME280_pressure;Samples;Min_cycle;Max_cycle;Signal;HPM_P1;HPM_P2
2023/07/25 00:00:28;;;;;;;4.97;1.60;;;13.60;99.90;;;;;;5094612;28;20020;-66
2023/07/25 00:02:53;;;;;;;4.47;1.40;;;13.60;99.90;;;;;;5089603;28;20035;-65
2023/07/25 00:05:19;;;;;;;7.73;1.80;;;13.50;99.90;;;;;;5087527;28;20363;-67
2023/07/25 00:07:45;;;;;;;6.63;1.77;;;13.40;99.90;;;;;;5090405;28;20028;-67
2023/07/25 00:10:11;;;;;;;5.37;1.40;;;13.40;99.90;;;;;;5083927;28;20030;-84
2023/07/25 00:12:37;;;;;;;4.63;1.20;;;13.40;99.90;;;;;;5091998;28;20025;-66
2023/07/25 00:15:04;;;;;;;5.45;1.60;;;13.40;99.90;;;;;;5091834;28;20040;-65
2023/07/25 00:17:29;;;;;;;4.65;1.50;;;13.40;99.90;;;;;;5095670;28;20093;-65
2023/07/25 00:19:55;;;;;;;2.40;1.00;;;13.30;99.90;;;;;;5094993;28;20028;-65
2023/07/25 00:22:21;;;;;;;1.80;0.93;;;13.30;99.90;;;;;;5089596;28;20100;-65
2023/07/25 00:24:46;;;;;;;6.50;1.03;;;13.20;99.90;;;;;;5072362;28;21428;-65
2023/07/25 00:27:12;;;;;;;1.20;1.00;;;13.20;99.90;;;;;;5088627;28;20036;-75
2023/07/25 00:29:38;;;;;;;6.10;2.10;;;13.10;99.90;;;;;;5094714;28;20028;-65
2023/07/25 00:32:04;;;;;;;2.63;1.30;;;13.10;99.90;;;;;;5088389;28;20051;-65
2023/07/25 00:34:29;;;;;;;5.32;1.50;;;13.00;99.90;;;;;;5087142;28;20067;-65
2023/07/25 00:36:56;;;;;;;6.80;1.77;;;12.90;99.90;;;;;;5089449;28;20047;-65
2023/07/25 00:39:22;;;;;;;3.72;1.73;;;13.00;99.90;;;;;;5078020;28;20433;-66
2023/07/25 00:41:47;;;;;;;8.00;1.87;;;12.90;99.90;;;;;;5083810;28;20114;-82
2023/07/25 00:44:13;;;;;;;4.00;2.20;;;12.90;99.90;;;;;;5085754;28;20035;-66
2023/07/25 00:46:41;;;;;;;10.13;1.70;;;12.90;99.90;;;;;;5089709;28;20016;-65
2023/07/25 00:49:06;;;;;;;4.35;1.85;;;12.90;99.90;;;;;;5084102;28;20024;-65
2023/07/25 00:51:32;;;;;;;4.23;1.83;;;12.80;99.90;;;;;;5091663;28;20350;-76
2023/07/25 00:53:58;;;;;;;4.53;1.93;;;12.80;99.90;;;;;;5093232;28;20052;-65
2023/07/25 00:56:24;;;;;;;3.13;1.90;;;12.80;99.90;;;;;;5094290;28;20065;-66
2023/07/25 00:58:49;;;;;;;6.97;2.10;;;12.80;99.90;;;;;;5093218;28;20020;-83
2023/07/25 01:01:15;;;;;;;7.43;1.90;;;12.80;99.90;;;;;;5093181;28;20028;-66
2023/07/25 01:03:41;;;;;;;4.50;1.90;;;12.80;99.90;;;;;;5093049;28;20024;-65
2023/07/25 01:06:12;;;;;;;7.63;2.05;;;12.80;99.90;;;;;;5088660;28;20081;-65
2023/07/25 01:08:51;;;;;;;7.65;2.25;;;12.80;99.90;;;;;;5092302;28;20029;-65
2023/07/25 01:11:17;;;;;;;2.95;1.55;;;12.70;99.90;;;;;;5078088;28;20528;-66
2023/07/25 01:13:43;;;;;;;9.83;2.00;;;12.70;99.90;;;;;;5090643;28;20127;-65
2023/07/25 01:16:15;;;;;;;7.88;1.92;;;12.70;99.90;;;;;;5094143;28;20403;-82
2023/07/25 01:18:41;;;;;;;5.07;1.48;;;12.70;99.90;;;;;;5086031;28;20036;-65
2023/07/25 01:21:08;;;;;;;;;;;12.60;99.90;;;;;;5087100;28;20020;-67
2023/07/25 01:23:35;;;;;;;8.05;1.90;;;12.60;99.90;;;;;;5090230;28;19923;-65
2023/07/25 01:26:01;;;;;;;7.28;2.08;;;12.60;99.90;;;;;;5091098;28;20340;-65
2023/07/25 01:28:27;;;;;;;4.97;1.77;;;12.60;99.90;;;;;;5083258;28;20020;-65
2023/07/25 01:30:52;;;;;;;4.65;2.30;;;12.60;99.90;;;;;;5093240;28;20063;-68
2023/07/25 01:33:18;;;;;;;6.63;1.50;;;12.60;99.90;;;;;;5091013;28;20453;-65
2023/07/25 01:35:44;;;;;;;6.73;1.97;;;12.60;99.90;;;;;;5092719;28;20028;-65
2023/07/25 01:38:09;;;;;;;7.50;1.90;;;12.60;99.90;;;;;;5093677;28;20376;-82
2023/07/25 01:40:39;;;;;;;5.77;1.77;;;12.50;99.90;;;;;;5090960;28;20074;-66
2023/07/25 01:43:05;;;;;;;3.22;1.75;;;12.50;99.90;;;;;;5103100;28;20028;-65
2023/07/25 01:45:31;;;;;;;5.60;1.58;;;12.50;99.90;;;;;;5090423;28;20031;-65
2023/07/25 01:47:57;;;;;;;9.10;1.83;;;12.60;99.90;;;;;;5092928;28;20036;-83
2023/07/25 01:50:22;;;;;;;6.38;1.80;;;12.50;99.90;;;;;;5094132;28;20020;-65
2023/07/25 01:52:48;;;;;;;13.13;2.13;;;12.50;99.90;;;;;;5093521;28;20024;-65
2023/07/25 01:55:14;;;;;;;15.47;2.40;;;12.50;99.90;;;;;;5091964;28;20052;-66
2023/07/25 01:57:39;;;;;;;4.87;2.20;;;12.50;99.90;;;;;;5092396;28;20052;-65
2023/07/25 02:00:06;;;;;;;2.57;2.00;;;12.50;99.90;;;;;;5092757;28;20020;-65
2023/07/25 02:02:31;;;;;;;3.60;1.48;;;12.60;99.90;;;;;;5091554;28;20070;-65
2023/07/25 02:04:57;;;;;;;5.60;1.77;;;12.50;99.90;;;;;;5092410;28;20410;-65
2023/07/25 02:07:23;;;;;;;5.17;1.67;;;12.40;99.90;;;;;;5092594;28;20474;-65
2023/07/25 02:09:48;;;;;;;7.43;1.60;;;12.30;99.90;;;;;;5093928;28;20411;-65
2023/07/25 02:12:14;;;;;;;2.57;1.53;;;12.30;99.90;;;;;;5092369;28;20326;-65
2023/07/25 02:14:40;;;;;;;1.63;1.40;;;12.30;99.90;;;;;;5091991;28;20032;-81
2023/07/25 02:17:05;;;;;;;4.97;1.90;;;12.30;99.90;;;;;;5092527;28;20081;-65
2023/07/25 02:19:31;;;;;;;3.17;1.67;;;12.30;99.90;;;;;;5084660;28;20032;-65
2023/07/25 02:21:57;;;;;;;7.13;2.13;;;12.40;99.90;;;;;;5089790;28;20032;-65
2023/07/25 02:24:22;;;;;;;4.47;2.23;;;12.40;99.90;;;;;;5091092;28;20036;-65
2023/07/25 02:26:48;;;;;;;10.37;2.33;;;12.40;99.90;;;;;;5091294;28;20028;-65
2023/07/25 02:29:14;;;;;;;3.23;2.27;;;12.40;99.90;;;;;;5093659;28;20055;-66
2023/07/25 02:31:39;;;;;;;3.67;1.90;;;12.40;99.90;;;;;;5093220;28;20031;-77
2023/07/25 02:34:05;;;;;;;3.87;1.80;;;12.40;99.90;;;;;;5091877;28;20032;-65
2023/07/25 02:36:30;;;;;;;5.57;2.23;;;12.30;99.90;;;;;;5095163;28;20024;-65
2023/07/25 02:38:56;;;;;;;2.73;1.93;;;12.30;99.90;;;;;;5097512;28;20116;-65
2023/07/25 02:41:22;;;;;;;7.07;2.30;;;12.30;99.90;;;;;;5095981;28;20060;-82
2023/07/25 02:43:47;;;;;;;5.87;2.40;;;12.30;99.90;;;;;;5094900;28;20071;-66
2023/07/25 02:46:13;;;;;;;3.93;2.10;;;12.30;99.90;;;;;;5095444;28;20030;-66
2023/07/25 02:48:39;;;;;;;5.57;1.90;;;12.20;99.90;;;;;;5094557;28;20107;-65
2023/07/25 02:51:04;;;;;;;4.30;2.33;;;12.20;99.90;;;;;;5089040;28;20029;-65
2023/07/25 02:53:30;;;;;;;5.57;2.27;;;12.20;99.90;;;;;;5095756;28;20020;-65
2023/07/25 02:55:56;;;;;;;12.57;2.77;;;12.10;99.90;;;;;;5058778;28;20435;-65
2023/07/25 02:58:23;;;;;;;6.93;2.37;;;12.10;99.90;;;;;;5072581;28;20043;-82
2023/07/25 03:00:48;;;;;;;7.20;2.20;;;12.10;99.90;;;;;;5072163;28;20040;-65
2023/07/25 03:03:14;;;;;;;4.10;1.37;;;12.10;99.90;;;;;;5073841;28;20040;-65
2023/07/25 03:05:40;;;;;;;5.63;1.93;;;12.10;99.90;;;;;;5074103;28;20074;-65
2023/07/25 03:08:05;;;;;;;2.10;1.30;;;12.10;99.90;;;;;;5071704;28;20025;-66
2023/07/25 03:10:32;;;;;;;7.60;1.93;;;12.20;99.90;;;;;;5059006;28;20025;-65
2023/07/25 03:12:58;;;;;;;6.50;1.70;;;12.20;99.90;;;;;;5073707;28;20030;-65
2023/07/25 03:15:23;;;;;;;4.30;1.60;;;12.20;99.90;;;;;;5078174;28;20132;-65
2023/07/25 03:17:49;;;;;;;7.10;2.07;;;12.20;99.90;;;;;;5068368;28;20025;-65
2023/07/25 03:20:15;;;;;;;5.60;2.00;;;12.20;99.90;;;;;;5074596;28;20056;-65
2023/07/25 03:22:41;;;;;;;3.77;2.00;;;12.20;99.90;;;;;;5073878;28;20060;-65
2023/07/25 03:25:07;;;;;;;4.63;1.83;;;12.20;99.90;;;;;;5074629;28;20017;-65
2023/07/25 03:27:33;;;;;;;3.83;1.77;;;12.20;99.90;;;;;;5074665;28;20427;-65
2023/07/25 03:29:58;;;;;;;5.23;2.33;;;12.20;99.90;;;;;;5075287;28;20071;-65
2023/07/25 03:32:24;;;;;;;7.97;2.43;;;12.20;99.90;;;;;;5074092;28;20433;-65
2023/07/25 03:34:50;;;;;;;4.17;1.53;;;12.10;99.90;;;;;;5072891;28;20434;-65
2023/07/25 03:37:15;;;;;;;5.97;2.10;;;12.10;99.90;;;;;;5074636;28;20419;-66
2023/07/25 03:39:41;;;;;;;2.07;1.70;;;12.10;99.90;;;;;;5075599;28;20028;-65
2023/07/25 03:42:07;;;;;;;5.60;1.90;;;12.10;99.90;;;;;;5069806;28;20035;-80
2023/07/25 03:44:32;;;;;;;3.27;1.80;;;12.10;99.90;;;;;;5072374;28;20059;-65
2023/07/25 03:46:58;;;;;;;8.53;2.20;;;12.10;99.90;;;;;;5065591;28;20029;-65
2023/07/25 03:49:24;;;;;;;4.27;1.67;;;12.10;99.90;;;;;;5075094;28;20032;-65
2023/07/25 03:51:49;;;;;;;5.63;1.30;;;12.20;99.90;;;;;;5074817;28;20028;-65
2023/07/25 03:54:15;;;;;;;4.83;1.83;;;12.20;99.90;;;;;;5071217;28;20119;-66
2023/07/25 03:56:41;;;;;;;4.73;2.37;;;12.30;99.90;;;;;;5093018;28;20476;-65
2023/07/25 03:59:06;;;;;;;5.97;1.87;;;12.40;99.90;;;;;;5095126;28;20326;-65
2023/07/25 04:01:32;;;;;;;12.70;1.53;;;12.60;99.90;;;;;;5094433;28;20094;-65
2023/07/25 04:03:58;;;;;;;6.47;1.97;;;12.70;99.90;;;;;;5087142;28;20032;-66
2023/07/25 04:06:23;;;;;;;4.17;1.63;;;13.10;99.90;;;;;;5093315;28;20032;-67
2023/07/25 04:08:49;;;;;;;4.57;1.60;;;13.30;99.90;;;;;;5086612;28;20020;-82
2023/07/25 04:11:15;;;;;;;2.37;1.03;;;13.40;99.90;;;;;;5095214;28;20103;-67
2023/07/25 04:13:40;;;;;;;1.33;1.00;;;13.50;99.90;;;;;;5072399;28;20063;-65
2023/07/25 04:16:06;;;;;;;4.67;1.33;;;13.50;99.90;;;;;;5091587;28;20032;-66
2023/07/25 04:18:32;;;;;;;5.83;1.27;;;13.60;99.90;;;;;;5085904;28;20040;-65
2023/07/25 04:20:57;;;;;;;3.80;1.10;;;13.60;99.90;;;;;;5095244;28;20069;-66
2023/07/25 04:23:23;;;;;;;4.67;1.73;;;13.60;99.90;;;;;;5087069;28;20407;-66
2023/07/25 04:25:49;;;;;;;2.63;1.17;;;13.60;99.90;;;;;;5093551;28;20296;-85
2023/07/25 04:28:15;;;;;;;12.83;1.57;;;13.50;99.90;;;;;;5088721;28;20020;-65
2023/07/25 04:30:41;;;;;;;1.87;1.33;;;13.60;99.90;;;;;;5086141;28;20070;-65
2023/07/25 04:33:06;;;;;;;10.63;2.60;;;13.60;99.90;;;;;;5088862;28;20057;-65
2023/07/25 04:35:32;;;;;;;2.73;1.47;;;13.60;99.90;;;;;;5090872;28;20431;-65
2023/07/25 04:37:58;;;;;;;6.20;1.40;;;13.70;99.90;;;;;;5085828;28;20081;-64
2023/07/25 04:40:24;;;;;;;6.10;1.57;;;13.70;99.90;;;;;;5102469;28;20153;-65
2023/07/25 04:42:50;;;;;;;5.55;1.52;;;13.70;99.90;;;;;;5094777;28;20382;-65
2023/07/25 04:45:16;;;;;;;6.50;1.20;;;13.70;99.90;;;;;;5090006;28;20063;-65
2023/07/25 04:47:41;;;;;;;6.80;1.67;;;13.80;99.90;;;;;;5094609;28;20300;-65
2023/07/25 04:50:08;;;;;;;1.97;1.50;;;13.80;99.90;;;;;;5084889;28;20020;-65
2023/07/25 04:52:33;;;;;;;2.65;1.65;;;13.80;99.90;;;;;;5086528;28;20376;-66
2023/07/25 04:54:59;;;;;;;6.50;1.53;;;13.90;99.90;;;;;;5084627;28;20115;-64
2023/07/25 04:57:25;;;;;;;7.33;1.37;;;13.90;99.90;;;;;;5094236;28;20048;-65
2023/07/25 04:59:51;;;;;;;2.85;1.17;;;13.90;99.90;;;;;;5091836;28;20069;-64
2023/07/25 05:02:19;;;;;;;12.00;2.23;;;14.00;99.90;;;;;;5092759;28;20039;-65
2023/07/25 05:04:44;;;;;;;4.95;1.42;;;14.00;99.90;;;;;;5092164;28;20107;-65
2023/07/25 05:07:10;;;;;;;6.00;2.00;;;14.00;99.90;;;;;;5090976;28;20191;-64
2023/07/25 05:09:36;;;;;;;6.77;1.50;;;14.10;99.90;;;;;;5089178;28;20046;-65
2023/07/25 05:12:04;;;;;;;1.43;0.90;;;14.10;99.90;;;;;;5090451;28;20073;-65
2023/07/25 05:14:30;;;;;;;2.25;1.02;;;14.10;99.90;;;;;;5092301;28;20028;-65
2023/07/25 05:16:56;;;;;;;5.20;1.15;;;14.10;99.90;;;;;;5093606;28;20020;-64
2023/07/25 05:19:21;;;;;;;9.47;1.20;;;14.20;99.90;;;;;;5084051;28;20085;-64
2023/07/25 05:21:47;;;;;;;3.70;0.80;;;14.20;99.90;;;;;;5094491;28;20365;-66
2023/07/25 05:24:14;;;;;;;13.97;1.80;;;14.30;99.90;;;;;;5091051;28;20027;-70
2023/07/25 05:26:41;;;;;;;8.95;1.17;;;14.30;99.90;;;;;;5093002;28;20031;-80
2023/07/25 05:29:07;;;;;;;6.57;1.52;;;14.30;99.90;;;;;;5074482;28;20427;-65
2023/07/25 05:31:33;;;;;;;4.55;1.08;;;14.30;99.90;;;;;;5094470;28;20115;-65
2023/07/25 05:33:58;;;;;;;6.33;1.10;;;14.30;99.90;;;;;;5093280;28;20036;-65
2023/07/25 05:36:24;;;;;;;3.17;0.97;;;14.30;99.90;;;;;;5091047;28;20028;-65
2023/07/25 05:38:50;;;;;;;3.23;1.00;;;14.30;99.90;;;;;;5091659;28;20390;-66
2023/07/25 05:41:16;;;;;;;6.47;1.37;;;14.30;99.90;;;;;;5093829;28;20422;-65
2023/07/25 05:43:41;;;;;;;7.73;1.10;;;14.30;99.90;;;;;;5093739;28;20064;-80
2023/07/25 05:46:08;;;;;;;10.63;1.07;;;14.40;99.90;;;;;;5071964;28;20031;-65
2023/07/25 05:48:34;;;;;;;5.90;1.08;;;14.40;99.90;;;;;;5092464;28;20081;-65
2023/07/25 05:51:00;;;;;;;4.70;1.50;;;14.40;99.90;;;;;;5089223;28;20024;-64
2023/07/25 05:53:26;;;;;;;4.17;1.13;;;14.40;99.90;;;;;;5092726;28;20031;-65
2023/07/25 05:55:51;;;;;;;7.10;1.57;;;14.50;99.90;;;;;;5093538;28;20067;-64
2023/07/25 05:58:19;;;;;;;5.40;1.00;;;14.50;99.90;;;;;;5094014;28;20031;-66
2023/07/25 06:00:46;;;;;;;2.35;1.52;;;14.50;99.90;;;;;;5090150;28;20024;-65
2023/07/25 06:03:13;;;;;;;2.42;0.68;;;14.60;99.90;;;;;;5090121;28;20032;-83
2023/07/25 06:05:40;;;;;;;2.38;0.95;;;14.70;99.90;;;;;;5093476;28;20030;-65
2023/07/25 06:08:06;;;;;;;2.83;1.25;;;14.80;99.90;;;;;;5093481;28;20077;-81
2023/07/25 06:10:32;;;;;;;3.30;0.65;;;14.90;99.90;;;;;;5095998;28;20028;-64
2023/07/25 06:12:58;;;;;;;2.13;0.90;;;14.80;99.90;;;;;;5094982;28;20485;-64
2023/07/25 06:15:24;;;;;;;3.97;0.83;;;14.80;99.90;;;;;;5096642;28;20370;-65
2023/07/25 06:17:50;;;;;;;3.90;0.73;;;14.80;99.90;;;;;;5093138;28;20025;-66
2023/07/25 06:20:15;;;;;;;2.93;0.67;;;14.80;99.90;;;;;;5091878;28;20103;-65
2023/07/25 06:22:41;;;;;;;3.13;0.60;;;14.80;99.90;;;;;;5095674;28;20494;-66
2023/07/25 06:25:08;;;;;;;1.73;0.83;;;14.80;99.90;;;;;;5097039;28;20024;-65
2023/07/25 06:27:34;;;;;;;2.92;0.90;;;14.80;99.90;;;;;;5091922;28;20526;-65
2023/07/25 06:30:02;;;;;;;7.90;1.15;;;14.80;99.90;;;;;;5097481;28;20344;-65
2023/07/25 06:32:28;;;;;;;1.30;0.60;;;14.90;99.90;;;;;;5094907;28;20035;-66
2023/07/25 06:34:53;;;;;;;0.40;0.40;;;15.00;99.90;;;;;;5096773;28;20114;-66
2023/07/25 06:37:19;;;;;;;1.30;0.60;;;15.00;99.90;;;;;;5096762;28;20466;-66
2023/07/25 06:39:45;;;;;;;4.33;0.57;;;15.20;99.90;;;;;;5085177;28;20052;-65
2023/07/25 06:42:10;;;;;;;1.10;0.60;;;15.20;99.90;;;;;;5089832;28;20127;-81
2023/07/25 06:44:36;;;;;;;5.53;0.97;;;15.20;99.90;;;;;;5089791;28;20544;-66
2023/07/25 06:47:02;;;;;;;6.17;0.73;;;15.30;99.90;;;;;;5082950;28;20016;-64
2023/07/25 06:49:27;;;;;;;1.77;0.63;;;15.40;99.90;;;;;;5086135;28;20403;-65
2023/07/25 06:51:55;;;;;;;1.77;0.67;;;15.30;99.90;;;;;;5076729;28;20027;-67
2023/07/25 06:54:21;;;;;;;0.57;0.50;;;15.40;99.90;;;;;;5088590;28;20032;-65
2023/07/25 06:56:47;;;;;;;1.65;0.65;;;15.40;99.90;;;;;;5090526;28;20028;-66
2023/07/25 06:59:13;;;;;;;1.17;0.43;;;15.50;99.90;;;;;;5081120;28;20055;-75
2023/07/25 07:01:38;;;;;;;1.40;0.43;;;15.60;99.90;;;;;;5085789;28;20020;-65
2023/07/25 07:04:04;;;;;;;2.00;0.33;;;15.60;99.90;;;;;;5085829;28;20024;-67
2023/07/25 07:06:30;;;;;;;5.83;0.40;;;15.60;99.90;;;;;;5075677;28;20028;-65
2023/07/25 07:08:55;;;;;;;2.03;0.57;;;15.70;99.90;;;;;;5075665;28;20073;-67
2023/07/25 07:11:21;;;;;;;4.03;0.43;;;15.70;99.90;;;;;;5095956;28;20028;-67
2023/07/25 07:13:47;;;;;;;0.53;0.47;;;15.80;99.90;;;;;;5087373;28;20456;-66
2023/07/25 07:16:12;;;;;;;10.33;0.87;;;15.80;99.90;;;;;;5080897;28;20032;-86
2023/07/25 07:18:38;;;;;;;3.73;0.50;;;15.80;99.90;;;;;;5092075;28;20024;-67
2023/07/25 07:21:04;;;;;;;1.37;0.47;;;15.90;99.90;;;;;;5089505;28;20016;-65
2023/07/25 07:23:29;;;;;;;0.67;0.40;;;15.90;99.90;;;;;;5090930;28;20073;-65
2023/07/25 07:25:55;;;;;;;3.07;0.40;;;15.90;99.90;;;;;;5092830;28;20306;-88
2023/07/25 07:28:20;;;;;;;3.10;0.47;;;15.80;99.90;;;;;;5089611;28;20460;-66
2023/07/25 07:30:50;;;;;;;2.73;0.60;;;15.90;99.90;;;;;;5084602;28;20413;-67
2023/07/25 07:33:16;;;;;;;2.40;0.80;;;16.00;99.90;;;;;;5086301;28;20031;-66
2023/07/25 07:35:42;;;;;;;1.20;0.40;;;16.10;99.90;;;;;;5095326;28;20060;-65
2023/07/25 07:38:08;;;;;;;0.63;0.47;;;16.20;99.90;;;;;;5088213;28;20059;-77
2023/07/25 07:40:35;;;;;;;1.50;0.37;;;16.30;99.90;;;;;;5094977;28;20024;-65
2023/07/25 07:43:01;;;;;;;;;;;16.30;99.90;;;;;;5090560;28;20028;-86
2023/07/25 07:45:27;;;;;;;1.00;0.50;;;16.30;99.90;;;;;;5092644;28;19911;-65
2023/07/25 07:47:53;;;;;;;2.83;0.30;;;16.30;99.90;;;;;;5088514;28;20034;-65
2023/07/25 07:50:19;;;;;;;0.93;0.82;;;16.30;99.90;;;;;;5085773;28;20020;-65
2023/07/25 07:52:45;;;;;;;2.92;0.30;;;16.20;99.90;;;;;;5081902;28;20032;-66
2023/07/25 07:55:12;;;;;;;0.30;0.30;;;16.30;99.90;;;;;;5083672;28;20056;-88
2023/07/25 07:57:44;;;;;;;;;;;16.20;99.90;;;;;;5095476;28;20071;-64
2023/07/25 08:00:11;;;;;;;4.10;0.25;;;16.30;99.90;;;;;;5091111;28;19994;-89
2023/07/25 08:02:37;;;;;;;3.05;0.65;;;16.40;99.90;;;;;;5091710;28;20108;-65
2023/07/25 08:05:03;;;;;;;1.57;0.53;;;16.50;99.90;;;;;;5083176;28;20687;-67
2023/07/25 08:07:29;;;;;;;2.00;0.13;;;16.60;99.90;;;;;;5087840;28;20061;-65
2023/07/25 08:09:55;;;;;;;0.13;0.13;;;16.60;99.90;;;;;;5085271;28;20031;-65
2023/07/25 08:12:22;;;;;;;0.40;0.40;;;16.70;99.90;;;;;;5086516;28;20028;-90
2023/07/25 08:14:48;;;;;;;0.85;0.40;;;16.90;99.90;;;;;;5089911;28;20028;-66
2023/07/25 08:17:14;;;;;;;0.37;0.33;;;17.10;99.90;;;;;;5087089;28;20042;-68
2023/07/25 08:19:40;;;;;;;0.63;0.20;;;17.10;99.90;;;;;;5088112;28;20028;-64
2023/07/25 08:22:06;;;;;;;3.67;0.40;;;17.20;99.90;;;;;;5087486;28;20029;-66
2023/07/25 08:24:32;;;;;;;1.10;0.27;;;17.10;99.90;;;;;;5093482;28;20028;-65
2023/07/25 08:26:59;;;;;;;6.50;1.33;;;17.00;99.90;;;;;;5088386;28;20017;-65
2023/07/25 08:29:25;;;;;;;3.60;0.38;;;17.10;99.90;;;;;;5089730;28;20024;-66
2023/07/25 08:31:51;;;;;;;1.67;0.40;;;17.10;99.90;;;;;;5087261;28;20032;-88
2023/07/25 08:34:16;;;;;;;0.83;0.50;;;17.20;99.90;;;;;;5094770;28;20046;-65
2023/07/25 08:36:42;;;;;;;1.10;0.30;;;17.40;99.90;;;;;;5094519;28;20039;-64
2023/07/25 08:39:08;;;;;;;0.40;0.30;;;17.40;99.90;;;;;;5094227;28;20039;-78
2023/07/25 08:41:43;;;;;;;0.77;0.53;;;17.40;99.90;;;;;;5091640;28;20054;-64
2023/07/25 08:44:12;;;;;;;0.47;0.35;;;17.30;99.90;;;;;;5075212;28;20036;-88
2023/07/25 08:46:45;;;;;;;3.28;0.50;;;17.40;99.90;;;;;;5088273;28;20028;-65
2023/07/25 08:49:15;;;;;;;2.80;0.28;;;17.40;99.90;;;;;;5076451;28;20020;-83
2023/07/25 08:51:43;;;;;;;0.90;0.45;;;17.30;99.90;;;;;;5084859;28;20016;-67
2023/07/25 08:54:31;;;;;;;0.40;0.28;;;17.10;99.90;;;;;;5084394;28;20320;-83
2023/07/25 08:56:57;;;;;;;0.20;0.20;;;17.10;99.90;;;;;;5055907;28;20072;-65
2023/07/25 08:59:26;;;;;;;0.35;0.32;;;17.40;99.90;;;;;;5074823;28;20033;-67
2023/07/25 09:01:52;;;;;;;0.22;0.20;;;17.40;99.90;;;;;;5070278;28;20024;-67
2023/07/25 09:04:20;;;;;;;1.75;0.43;;;17.50;99.90;;;;;;5073089;28;20036;-64
2023/07/25 09:06:45;;;;;;;0.38;0.22;;;17.70;99.90;;;;;;5072599;28;20040;-64
2023/07/25 09:09:11;;;;;;;0.67;0.20;;;17.70;99.90;;;;;;5062117;28;20021;-85
2023/07/25 09:11:37;;;;;;;1.53;0.30;;;17.80;99.90;;;;;;5071441;28;21537;-67
2023/07/25 09:14:03;;;;;;;2.13;0.47;;;17.70;99.90;;;;;;5070157;28;20296;-64
2023/07/25 09:16:30;;;;;;;3.78;0.43;;;17.90;99.90;;;;;;5068639;28;20036;-65
2023/07/25 09:18:55;;;;;;;0.65;0.38;;;18.00;99.90;;;;;;5064644;28;20032;-65
2023/07/25 09:21:21;;;;;;;2.03;0.40;;;18.00;99.90;;;;;;5061165;28;20048;-66
2023/07/25 09:23:54;;;;;;;2.00;0.60;;;18.10;99.90;;;;;;5063237;28;20044;-65
2023/07/25 09:26:28;;;;;;;1.35;0.43;;;18.20;99.90;;;;;;5063450;28;20044;-66
2023/07/25 09:28:58;;;;;;;1.02;0.30;;;18.20;99.90;;;;;;5071089;28;20028;-64
2023/07/25 09:31:26;;;;;;;1.85;0.38;;;18.30;99.90;;;;;;5065571;28;20013;-66
2023/07/25 09:33:53;;;;;;;2.55;0.50;;;18.30;99.90;;;;;;5071677;28;20088;-64
2023/07/25 09:36:20;;;;;;;1.10;0.68;;;18.40;99.90;;;;;;5074454;28;20411;-66
2023/07/25 09:38:55;;;;;;;5.28;0.93;;;18.50;99.90;;;;;;5073615;28;20020;-67
2023/07/25 09:41:23;;;;;;;4.32;0.57;;;18.60;99.90;;;;;;5066946;28;24745;-65
2023/07/25 09:43:50;;;;;;;0.38;0.20;;;18.50;99.90;;;;;;5064867;28;20028;-66
2023/07/25 09:46:15;;;;;;;0.30;0.28;;;18.40;99.90;;;;;;5073640;28;20081;-67
2023/07/25 09:48:47;;;;;;;1.17;0.70;;;18.30;99.90;;;;;;5056916;28;20032;-67
2023/07/25 09:51:14;;;;;;;1.52;0.47;;;18.30;99.90;;;;;;5076170;28;20024;-72
2023/07/25 09:53:44;;;;;;;1.33;0.60;;;18.20;99.90;;;;;;5075905;28;20024;-65
2023/07/25 09:56:11;;;;;;;9.70;0.73;;;18.20;99.90;;;;;;5058119;28;20048;-90
2023/07/25 09:58:37;;;;;;;0.28;0.20;;;18.00;99.90;;;;;;5077404;28;20040;-67
2023/07/25 10:01:04;;;;;;;3.45;0.52;;;18.00;99.90;;;;;;5075112;28;20047;-67
2023/07/25 10:03:30;;;;;;;2.67;0.65;;;18.00;99.90;;;;;;5076839;28;20063;-65
2023/07/25 10:05:57;;;;;;;6.32;0.93;;;18.00;99.90;;;;;;5072597;28;20032;-65
2023/07/25 10:08:26;;;;;;;0.57;0.20;;;17.80;99.90;;;;;;5056824;28;20047;-64
2023/07/25 10:10:54;;;;;;;2.25;0.35;;;17.80;99.90;;;;;;5074349;28;20021;-64
2023/07/25 10:13:20;;;;;;;4.97;0.75;;;17.70;99.90;;;;;;5072681;28;20103;-66
2023/07/25 10:15:46;;;;;;;0.30;0.30;;;17.70;99.90;;;;;;5071420;28;20125;-66
2023/07/25 10:18:26;;;;;;;1.98;0.30;;;17.60;99.90;;;;;;5071700;28;20046;-67
2023/07/25 10:20:53;;;;;;;5.93;0.88;;;17.70;99.90;;;;;;5072821;28;20454;-66
2023/07/25 10:23:19;;;;;;;3.13;0.40;;;17.70;99.90;;;;;;5072129;28;20032;-65
2023/07/25 10:25:45;;;;;;;0.77;0.38;;;17.70;99.90;;;;;;5072346;28;20036;-66
2023/07/25 10:28:12;;;;;;;0.20;0.20;;;17.70;99.90;;;;;;5077290;28;20332;-84
2023/07/25 10:30:45;;;;;;;0.90;0.52;;;17.80;99.90;;;;;;5068064;28;20031;-66
2023/07/25 10:33:13;;;;;;;1.52;0.82;;;17.90;99.90;;;;;;5076023;28;20063;-90
2023/07/25 10:35:39;;;;;;;0.88;0.32;;;18.10;99.90;;;;;;5057649;28;20073;-64
2023/07/25 10:38:12;;;;;;;5.57;0.53;;;18.10;99.90;;;;;;5067932;28;20319;-66
2023/07/25 10:41:00;;;;;;;0.30;0.30;;;18.10;99.90;;;;;;5070414;28;20025;-66
2023/07/25 10:43:46;;;;;;;6.55;0.65;;;17.90;99.90;;;;;;5075634;28;20067;-64
2023/07/25 10:46:17;;;;;;;0.93;0.40;;;17.80;99.90;;;;;;5072323;28;20025;-90
2023/07/25 10:48:45;;;;;;;0.90;0.57;;;17.80;99.90;;;;;;5068366;28;20032;-82
2023/07/25 10:51:12;;;;;;;0.57;0.55;;;18.00;99.90;;;;;;5054961;28;20063;-90
2023/07/25 10:53:39;;;;;;;1.65;0.40;;;18.00;99.90;;;;;;5062759;28;20025;-67
2023/07/25 10:56:05;;;;;;;2.53;0.43;;;17.90;99.90;;;;;;5078412;28;20044;-78
2023/07/25 10:58:38;;;;;;;1.17;0.30;;;17.80;99.90;;;;;;5092823;28;20024;-67
2023/07/25 11:01:05;;;;;;;2.20;0.45;;;17.70;99.90;;;;;;5071045;28;20024;-66
2023/07/25 11:03:35;;;;;;;;;;;17.70;99.90;;;;;;5071783;28;20036;-65
2023/07/25 11:06:07;;;;;;;0.30;0.30;;;17.70;99.90;;;;;;5086800;28;19908;-66
2023/07/25 11:08:34;;;;;;;0.32;0.32;;;17.80;99.90;;;;;;5082251;28;20203;-66
2023/07/25 11:11:05;;;;;;;1.05;0.43;;;18.00;99.90;;;;;;5079329;28;20032;-75
2023/07/25 11:13:35;;;;;;;0.57;0.40;;;17.90;99.90;;;;;;5085523;28;20028;-67
2023/07/25 11:16:01;;;;;;;4.43;0.60;;;17.80;99.90;;;;;;5087861;28;20039;-65
2023/07/25 11:18:27;;;;;;;1.52;0.38;;;17.70;99.90;;;;;;5088175;28;20110;-65
2023/07/25 11:21:04;;;;;;;0.67;0.30;;;17.50;99.90;;;;;;5086445;28;20157;-66
2023/07/25 11:23:30;;;;;;;2.22;0.38;;;17.30;99.90;;;;;;5082797;28;20028;-64
2023/07/25 11:26:01;;;;;;;0.60;0.60;;;17.30;99.90;;;;;;5087386;28;20395;-85
2023/07/25 11:28:26;;;;;;;4.47;0.65;;;17.40;99.90;;;;;;5090382;28;20028;-66
2023/07/25 11:30:52;;;;;;;0.83;0.50;;;17.50;99.90;;;;;;5095482;28;20081;-64
2023/07/25 11:33:19;;;;;;;1.60;0.57;;;17.60;99.90;;;;;;5085769;28;20025;-66
2023/07/25 11:35:51;;;;;;;2.05;0.50;;;17.60;99.90;;;;;;5083997;28;20028;-67
2023/07/25 11:38:16;;;;;;;0.28;0.28;;;17.60;99.90;;;;;;5087195;28;20077;-67
2023/07/25 11:40:42;;;;;;;0.43;0.43;;;17.60;99.90;;;;;;5086678;28;20155;-65
2023/07/25 11:43:12;;;;;;;0.40;0.40;;;17.70;99.90;;;;;;5095359;28;20150;-67
2023/07/25 11:45:39;;;;;;;0.82;0.35;;;18.00;99.90;;;;;;5091609;28;20031;-66
2023/07/25 11:48:09;;;;;;;0.45;0.45;;;18.40;99.90;;;;;;5086447;28;20101;-66
2023/07/25 11:50:35;;;;;;;0.28;0.28;;;18.50;99.90;;;;;;5089603;28;20027;-79
2023/07/25 11:53:02;;;;;;;0.32;0.10;;;18.70;99.90;;;;;;5089493;28;20034;-66
2023/07/25 11:55:28;;;;;;;0.28;0.20;;;18.80;99.90;;;;;;5093886;28;20384;-66
2023/07/25 11:57:54;;;;;;;0.20;0.20;;;18.70;99.90;;;;;;5095951;28;20101;-67
2023/07/25 12:00:21;;;;;;;0.20;0.20;;;18.60;99.90;;;;;;5091686;28;20028;-88
2023/07/25 12:02:47;;;;;;;2.72;0.20;;;18.40;99.90;;;;;;5082677;28;20480;-66
2023/07/25 12:05:31;;;;;;;1.40;0.20;;;18.20;99.90;;;;;;5090365;28;20016;-89
2023/07/25 12:08:03;;;;;;;0.10;0.10;;;18.00;99.90;;;;;;5089330;28;20071;-65
2023/07/25 12:10:34;;;;;;;0.20;0.20;;;18.00;99.90;;;;;;5089621;28;20066;-67
2023/07/25 12:13:08;;;;;;;0.20;0.20;;;18.10;99.90;;;;;;5087674;28;20024;-66
2023/07/25 12:15:49;;;;;;;3.45;0.35;;;18.20;99.90;;;;;;5073709;28;20043;-67
2023/07/25 12:18:29;;;;;;;1.55;0.30;;;18.50;99.90;;;;;;5095408;28;20035;-68
2023/07/25 12:20:56;;;;;;;0.13;0.13;;;18.70;99.90;;;;;;5086556;28;20036;-67
2023/07/25 12:23:40;;;;;;;0.32;0.30;;;18.80;99.90;;;;;;5094233;28;20292;-83
2023/07/25 12:26:09;;;;;;;0.98;0.60;;;18.80;99.90;;;;;;5092573;28;20107;-67
2023/07/25 12:28:43;;;;;;;0.22;0.22;;;18.60;99.90;;;;;;5092694;28;20103;-67
2023/07/25 12:31:09;;;;;;;0.50;0.28;;;18.20;99.90;;;;;;5093860;28;20099;-66
2023/07/25 12:33:35;;;;;;;0.20;0.20;;;17.70;99.90;;;;;;5093827;28;20032;-67
2023/07/25 12:36:01;;;;;;;0.30;0.30;;;17.40;99.90;;;;;;5089927;28;20028;-66
2023/07/25 12:38:27;;;;;;;0.57;0.57;;;17.20;99.90;;;;;;5088366;28;20024;-65
2023/07/25 12:40:53;;;;;;;3.23;0.57;;;17.10;99.90;;;;;;5093661;28;20031;-65
2023/07/25 12:43:19;;;;;;;0.50;0.50;;;17.30;99.90;;;;;;5092962;28;20326;-86
2023/07/25 12:45:45;;;;;;;1.20;0.50;;;17.50;99.90;;;;;;5092073;28;20029;-65